Time;durP1;ratioP1;P1;durP2;ratioP2;P2;SDS_P1;SDS_P2;PMS_P1;PMS_P2;Temp;Humidity;BMP_temperature;BMP_pressure;BME280_temperature;BME280_humidity;BME280_pressure;Samples;Min_cycle;Max_cycle;Signal;HPM_P1;HPM_P2
2021/04/07 00:00:58;;;;;;;5.45;4.95;;;-1.80;99.50;;;;;;4775998;29;20401;-82
2021/04/07 00:03:25;;;;;;;8.50;5.45;;;-1.90;99.60;;;;;;4791311;29;20055;-83
2021/04/07 00:05:54;;;;;;;6.80;6.22;;;-1.90;99.40;;;;;;4790248;29;20039;-84
2021/04/07 00:08:52;;;;;;;8.00;4.95;;;-1.80;99.40;;;;;;4807195;29;20066;-84
2021/04/07 00:11:38;;;;;;;5.88;5.22;;;-1.90;99.10;;;;;;4804425;29;20059;-84
2021/04/07 00:14:10;;;;;;;7.75;4.65;;;-1.90;99.10;;;;;;4804849;29;20046;-84
2021/04/07 00:16:39;;;;;;;7.85;4.63;;;-1.90;99.10;;;;;;4806647;29;20059;-83
2021/04/07 00:19:08;;;;;;;5.25;4.85;;;-1.90;99.10;;;;;;4805706;29;20765;-84
2021/04/07 00:21:36;;;;;;;8.20;5.07;;;-2.00;99.00;;;;;;4805914;29;20039;-83
2021/04/07 00:24:05;;;;;;;7.60;4.93;;;-2.00;98.90;;;;;;4790006;29;20520;-84
2021/04/07 00:26:36;;;;;;;5.82;4.35;;;-2.00;98.90;;;;;;4806669;29;20042;-84
2021/04/07 00:29:04;;;;;;;5.47;4.57;;;-2.10;98.90;;;;;;4805817;29;20065;-84
2021/04/07 00:31:32;;;;;;;5.38;4.88;;;-2.00;98.80;;;;;;4807153;29;20494;-83
2021/04/07 00:34:01;;;;;;;4.15;3.65;;;-2.00;98.60;;;;;;4805583;29;20062;-83
2021/04/07 00:36:29;;;;;;;4.97;4.57;;;-2.10;98.60;;;;;;4805913;29;20067;-83
2021/04/07 00:38:57;;;;;;;5.00;4.40;;;-2.10;98.70;;;;;;4806254;29;20047;-84
2021/04/07 00:41:25;;;;;;;4.35;4.05;;;-2.10;98.80;;;;;;4806306;29;20438;-83
2021/04/07 00:43:53;;;;;;;4.57;3.67;;;-2.00;98.70;;;;;;4790596;29;20069;-84
2021/04/07 00:46:22;;;;;;;5.22;4.75;;;-2.00;98.60;;;;;;4814107;29;20046;-84
2021/04/07 00:48:50;;;;;;;5.53;4.65;;;-2.00;98.70;;;;;;4825086;29;20061;-83
2021/04/07 00:51:20;;;;;;;5.75;5.20;;;-1.90;98.60;;;;;;4823655;29;20054;-84
2021/04/07 00:53:50;;;;;;;4.18;3.80;;;-1.90;98.70;;;;;;4807586;29;20049;-83
2021/04/07 00:56:19;;;;;;;3.53;3.22;;;-1.90;98.90;;;;;;4824721;29;20066;-84
2021/04/07 00:58:47;;;;;;;4.35;3.88;;;-1.90;99.20;;;;;;4824147;29;20045;-83
2021/04/07 01:01:15;;;;;;;4.40;3.97;;;-1.90;98.80;;;;;;4824349;29;20057;-84
2021/04/07 01:03:44;;;;;;;5.32;4.35;;;-1.90;98.60;;;;;;4824722;29;20070;-83
2021/04/07 01:06:12;;;;;;;5.10;4.70;;;-1.90;98.70;;;;;;4806313;29;20081;-83
2021/04/07 01:08:40;;;;;;;9.38;7.13;;;-1.90;98.60;;;;;;4824642;29;20062;-84
2021/04/07 01:11:09;;;;;;;5.60;4.65;;;-1.90;98.70;;;;;;4823984;29;20061;-84
2021/04/07 01:13:37;;;;;;;5.30;4.85;;;-1.80;98.60;;;;;;4824218;29;20047;-84
2021/04/07 01:16:06;;;;;;;5.38;4.72;;;-1.80;98.60;;;;;;4824509;29;20087;-83
2021/04/07 01:18:35;;;;;;;8.07;5.70;;;-1.80;98.70;;;;;;4823904;29;20878;-84
2021/04/07 01:21:06;;;;;;;7.35;6.63;;;-1.90;99.20;;;;;;4824021;29;20054;-83
2021/04/07 01:23:42;;;;;;;5.97;5.32;;;-1.90;99.40;;;;;;4824429;29;20069;-83
2021/04/07 01:26:11;;;;;;;5.53;5.13;;;-1.90;99.70;;;;;;4822759;29;20062;-83
2021/04/07 01:28:48;;;;;;;11.88;6.75;;;-1.90;99.90;;;;;;4823899;29;20058;-84
2021/04/07 01:31:16;;;;;;;6.07;5.43;;;-1.90;99.90;;;;;;4811450;29;20051;-84
2021/04/07 01:33:45;;;;;;;6.68;4.95;;;-2.00;99.90;;;;;;4804803;29;20043;-83
2021/04/07 01:36:13;;;;;;;6.45;5.85;;;-1.90;99.90;;;;;;4805002;29;20065;-84
2021/04/07 01:38:41;;;;;;;5.20;4.72;;;-1.90;99.90;;;;;;4805370;29;20055;-83
2021/04/07 01:41:12;;;;;;;8.35;6.50;;;-2.00;99.90;;;;;;4805229;29;20059;-84
2021/04/07 01:43:40;;;;;;;7.70;5.68;;;-2.00;99.90;;;;;;4805183;29;20059;-84
2021/04/07 01:46:09;;;;;;;7.85;7.25;;;-1.90;99.90;;;;;;4788919;29;20042;-84
2021/04/07 01:48:38;;;;;;;9.88;5.93;;;-1.90;99.90;;;;;;4805948;29;20066;-84
2021/04/07 01:51:09;;;;;;;4.88;4.57;;;-1.90;99.90;;;;;;4805373;29;20543;-84
2021/04/07 01:53:37;;;;;;;7.22;5.10;;;-1.90;99.90;;;;;;4804788;29;20046;-78
2021/04/07 01:56:05;;;;;;;7.68;6.97;;;-1.90;99.90;;;;;;4787465;29;20490;-82
2021/04/07 01:58:38;;;;;;;10.18;8.88;;;-2.00;99.90;;;;;;4788425;29;20043;-84
2021/04/07 02:01:08;;;;;;;6.40;5.82;;;-2.10;99.90;;;;;;4774017;29;20057;-83
2021/04/07 02:03:36;;;;;;;7.63;6.93;;;-2.10;99.90;;;;;;4805870;29;20520;-84
2021/04/07 02:06:04;;;;;;;6.57;6.07;;;-2.10;99.90;;;;;;4804976;29;20070;-84
2021/04/07 02:08:32;;;;;;;5.07;4.57;;;-2.10;99.90;;;;;;4805498;29;20062;-83
2021/04/07 02:11:01;;;;;;;8.02;7.22;;;-2.10;99.90;;;;;;4805215;29;20506;-84
2021/04/07 02:13:29;;;;;;;5.50;5.10;;;-2.20;99.90;;;;;;4789258;29;20046;-84
2021/04/07 02:15:57;;;;;;;9.05;7.18;;;-2.30;99.90;;;;;;4805171;29;20051;-85
2021/04/07 02:18:26;;;;;;;5.93;4.78;;;-2.30;99.90;;;;;;4805169;29;20082;-84
2021/04/07 02:20:54;;;;;;;5.93;5.43;;;-2.30;99.90;;;;;;4789645;29;20051;-84
2021/04/07 02:23:23;;;;;;;6.55;5.93;;;-2.30;99.90;;;;;;4802587;29;20066;-85
2021/04/07 02:25:51;;;;;;;5.22;4.72;;;-2.30;99.90;;;;;;4788633;29;20047;-84
2021/04/07 02:28:19;;;;;;;5.80;4.72;;;-2.30;99.90;;;;;;4805585;29;20055;-84
2021/04/07 02:30:47;;;;;;;7.43;6.13;;;-2.30;99.90;;;;;;4787770;29;20054;-79
2021/04/07 02:33:18;;;;;;;8.32;4.95;;;-2.30;99.90;;;;;;4803185;29;20054;-79
2021/04/07 02:35:47;;;;;;;7.20;5.65;;;-2.30;99.90;;;;;;4787594;29;20058;-79
2021/04/07 02:38:17;;;;;;;8.63;5.80;;;-2.30;99.90;;;;;;4803077;29;20055;-79
2021/04/07 02:40:49;;;;;;;6.28;5.53;;;-2.30;99.90;;;;;;4798988;29;20055;-81
2021/04/07 02:43:18;;;;;;;5.07;4.63;;;-2.30;99.90;;;;;;4789280;29;20087;-84
2021/04/07 02:45:46;;;;;;;5.63;4.53;;;-2.20;99.90;;;;;;4791201;29;20047;-84
2021/04/07 02:48:14;;;;;;;5.45;4.95;;;-2.20;99.90;;;;;;4809107;29;20062;-84
2021/04/07 02:50:42;;;;;;;5.95;4.95;;;-2.20;99.90;;;;;;4780437;29;20493;-84
2021/04/07 02:53:10;;;;;;;6.00;5.47;;;-2.20;99.90;;;;;;4809986;29;20058;-84
2021/04/07 02:55:41;;;;;;;4.97;4.47;;;-2.20;99.90;;;;;;4808948;29;20509;-77
2021/04/07 02:58:12;;;;;;;7.38;5.75;;;-2.20;99.90;;;;;;4789729;29;20082;-74
2021/04/07 03:00:40;;;;;;;7.47;6.07;;;-2.20;99.90;;;;;;4806358;29;20081;-74
2021/04/07 03:03:09;;;;;;;7.47;6.35;;;-2.20;99.90;;;;;;4790153;29;20058;-74
2021/04/07 03:05:43;;;;;;;7.00;6.43;;;-2.10;99.90;;;;;;4806208;29;20063;-74
2021/04/07 03:08:13;;;;;;;6.88;6.13;;;-2.10;99.90;;;;;;4806682;29;20066;-75
2021/04/07 03:10:41;;;;;;;7.43;6.32;;;-2.10;99.90;;;;;;4805878;29;20057;-74
2021/04/07 03:35:54;;;;;;;7.97;6.43;;;-2.00;99.80;;;;;;4805628;29;20046;-82
2021/04/07 03:39:07;;;;;;;6.47;6.03;;;-2.00;99.90;;;;;;4772989;29;20812;-81
2021/04/07 03:44:11;;;;;;;9.05;8.13;;;-2.00;99.90;;;;;;4807168;29;20046;-83
2021/04/07 03:53:35;;;;;;;13.30;7.43;;;-2.10;99.90;;;;;;4781241;30;20036;-83
2021/04/07 03:57:51;;;;;;;8.77;6.95;;;-2.10;99.90;;;;;;4794730;29;20057;-83
2021/04/07 04:02:12;;;;;;;10.52;6.70;;;-2.10;99.90;;;;;;4778572;29;20043;-83
2021/04/07 04:06:33;;;;;;;8.68;7.88;;;-2.10;99.90;;;;;;4770181;30;20047;-83
2021/04/07 04:10:03;;;;;;;8.48;7.35;;;-2.10;99.90;;;;;;4755547;30;20040;-83
2021/04/07 04:12:31;;;;;;;10.48;9.50;;;-2.10;99.90;;;;;;4740822;30;20487;-83
2021/04/07 04:14:59;;;;;;;10.93;9.85;;;-2.20;99.90;;;;;;4754689;30;20407;-83
2021/04/07 04:17:27;;;;;;;9.82;8.90;;;-2.20;99.90;;;;;;4754698;30;20509;-83
2021/04/07 04:19:56;;;;;;;9.18;8.15;;;-2.20;99.90;;;;;;4740783;30;20060;-83
2021/04/07 04:22:24;;;;;;;9.10;6.95;;;-2.20;99.90;;;;;;4770847;30;20414;-83
2021/04/07 04:24:53;;;;;;;11.20;8.00;;;-2.20;99.90;;;;;;4740477;30;20063;-85
2021/04/07 04:27:20;;;;;;;14.20;9.80;;;-2.20;99.90;;;;;;4754430;30;20067;-85
2021/04/07 04:29:50;;;;;;;22.23;9.90;;;-2.10;99.90;;;;;;4739598;30;20500;-84
2021/04/07 04:32:22;;;;;;;10.13;8.10;;;-2.10;99.90;;;;;;4755499;30;20545;-84
2021/04/07 04:34:55;;;;;;;15.20;9.05;;;-2.10;99.90;;;;;;4769511;30;20054;-85
2021/04/07 04:37:28;;;;;;;27.30;7.15;;;-2.10;99.90;;;;;;4747200;30;20486;-84
2021/04/07 04:40:02;;;;;;;13.45;8.65;;;-2.10;99.90;;;;;;4780863;30;20076;-85
2021/04/07 04:42:34;;;;;;;11.45;8.95;;;-2.10;99.90;;;;;;4776680;29;20047;-85
2021/04/07 04:45:08;;;;;;;14.25;9.32;;;-2.10;99.90;;;;;;4774510;29;20394;-85
2021/04/07 04:47:40;;;;;;;9.98;8.95;;;-2.20;99.90;;;;;;4775999;29;20399;-85
2021/04/07 04:50:14;;;;;;;16.65;10.07;;;-2.20;99.90;;;;;;4805455;29;20043;-85
2021/04/07 04:52:48;;;;;;;10.07;9.00;;;-2.20;99.90;;;;;;4805483;29;20055;-84
2021/04/07 04:55:19;;;;;;;14.38;8.52;;;-2.20;99.90;;;;;;4805902;29;20515;-84
2021/04/07 04:57:47;;;;;;;9.30;8.40;;;-2.20;99.90;;;;;;4790036;29;20062;-83
2021/04/07 05:00:16;;;;;;;15.52;12.77;;;-2.20;99.90;;;;;;4790463;29;20107;-84
2021/04/07 05:02:45;;;;;;;15.13;10.75;;;-2.30;99.90;;;;;;4806075;29;20047;-84
2021/04/07 05:05:14;;;;;;;6.28;5.63;;;-2.30;99.90;;;;;;4805719;29;20442;-83
2021/04/07 05:07:43;;;;;;;13.82;8.88;;;-2.40;99.90;;;;;;4777542;30;20064;-84
2021/04/07 05:10:11;;;;;;;10.32;9.13;;;-2.40;99.90;;;;;;4769874;30;20060;-84
2021/04/07 05:12:40;;;;;;;11.25;10.25;;;-2.40;99.90;;;;;;4754717;30;20430;-83
2021/04/07 05:15:08;;;;;;;6.80;6.07;;;-2.40;99.90;;;;;;4777817;30;20755;-83
2021/04/07 05:17:40;;;;;;;7.60;6.85;;;-2.40;99.90;;;;;;4771462;30;20039;-84
2021/04/07 05:20:09;;;;;;;12.65;11.38;;;-2.40;99.90;;;;;;4787683;29;20055;-84
2021/04/07 05:22:39;;;;;;;7.60;6.90;;;-2.40;99.90;;;;;;4786535;29;20486;-84
2021/04/07 05:25:08;;;;;;;10.18;9.13;;;-2.40;99.90;;;;;;4783063;30;20059;-84
2021/04/07 05:27:36;;;;;;;8.43;6.25;;;-2.40;99.70;;;;;;4785308;30;20059;-84
2021/04/07 05:30:06;;;;;;;5.90;4.78;;;-2.40;99.90;;;;;;4771765;30;20058;-84
2021/04/07 05:32:35;;;;;;;13.73;10.63;;;-2.40;99.80;;;;;;4772363;30;20070;-85
2021/04/07 05:35:04;;;;;;;9.27;8.38;;;-2.40;99.60;;;;;;4771758;30;20040;-84
2021/04/07 05:37:32;;;;;;;7.15;6.32;;;-2.40;99.70;;;;;;4771613;30;20058;-85
2021/04/07 05:40:00;;;;;;;8.85;7.15;;;-2.40;99.90;;;;;;4772108;30;20043;-85
2021/04/07 05:42:28;;;;;;;7.40;6.70;;;-2.40;99.90;;;;;;4787289;30;20393;-84
2021/04/07 05:44:57;;;;;;;8.45;6.63;;;-2.40;99.90;;;;;;4756205;30;20060;-79
2021/04/07 05:47:25;;;;;;;8.43;7.55;;;-2.40;99.90;;;;;;4803214;29;20058;-84
2021/04/07 05:49:53;;;;;;;11.48;8.40;;;-2.40;99.90;;;;;;4804808;29;20039;-84
2021/04/07 05:52:21;;;;;;;8.23;7.35;;;-2.40;99.90;;;;;;4789770;29;20054;-84
2021/04/07 05:54:50;;;;;;;8.93;6.47;;;-2.40;99.50;;;;;;4804265;29;20051;-84
2021/04/07 05:57:17;;;;;;;9.40;7.88;;;-2.40;99.60;;;;;;4814826;29;20046;-84
2021/04/07 05:59:46;;;;;;;8.45;7.65;;;-2.40;99.80;;;;;;4807647;29;20050;-84
2021/04/07 06:02:14;;;;;;;9.75;8.45;;;-2.30;99.60;;;;;;4807116;29;20061;-85
2021/04/07 06:04:42;;;;;;;9.93;8.35;;;-2.30;99.40;;;;;;4823856;29;20520;-85
2021/04/07 06:07:10;;;;;;;8.48;5.80;;;-2.20;99.30;;;;;;4818218;29;20039;-85
2021/04/07 06:09:42;;;;;;;8.93;7.53;;;-2.10;99.00;;;;;;4805195;29;20366;-84
2021/04/07 06:12:11;;;;;;;6.78;6.15;;;-2.20;98.70;;;;;;4803609;29;20481;-84
2021/04/07 06:14:38;;;;;;;8.25;6.68;;;-2.00;98.70;;;;;;4804898;29;20047;-84
2021/04/07 06:17:06;;;;;;;6.60;5.90;;;-1.90;98.10;;;;;;4805044;29;20073;-83
2021/04/07 06:19:35;;;;;;;10.35;8.40;;;-1.80;98.00;;;;;;4790212;29;20524;-85
2021/04/07 06:22:03;;;;;;;7.53;6.25;;;-1.70;97.20;;;;;;4805869;29;20043;-85
2021/04/07 06:24:49;;;;;;;9.88;8.88;;;-1.20;96.00;;;;;;4808668;29;20070;-86
2021/04/07 06:27:17;;;;;;;14.07;8.65;;;-0.90;95.30;;;;;;4808064;29;20054;-86
2021/04/07 06:29:46;;;;;;;9.88;6.72;;;-1.00;95.70;;;;;;4808546;29;20043;-85
2021/04/07 06:32:14;;;;;;;9.23;8.20;;;-1.20;95.30;;;;;;4808943;29;20062;-85
2021/04/07 06:34:42;;;;;;;8.60;7.38;;;-1.00;95.20;;;;;;4808310;29;20070;-86
2021/04/07 06:37:10;;;;;;;7.80;6.22;;;-0.60;93.60;;;;;;4808233;29;20066;-85
2021/04/07 06:39:42;;;;;;;6.35;5.10;;;-0.60;94.00;;;;;;4808842;29;20059;-85
2021/04/07 06:42:16;;;;;;;9.23;8.23;;;-1.20;95.20;;;;;;4807219;29;20077;-86
2021/04/07 06:44:45;;;;;;;7.13;6.43;;;-1.40;95.30;;;;;;4808723;29;20070;-85
2021/04/07 06:47:15;;;;;;;9.20;8.20;;;-1.50;95.50;;;;;;4807824;29;20516;-86
2021/04/07 06:49:43;;;;;;;9.27;7.28;;;-0.90;94.70;;;;;;4808458;29;20050;-86
2021/04/07 06:52:21;;;;;;;8.88;7.55;;;-0.50;92.50;;;;;;4792417;29;20054;-85
2021/04/07 06:55:21;;;;;;;7.85;7.15;;;-0.70;93.70;;;;;;4804208;29;20062;-84
2021/04/07 06:59:08;;;;;;;9.38;7.25;;;-0.80;94.00;;;;;;4795635;29;20409;-81
2021/04/07 07:03:09;;;;;;;6.40;5.60;;;-1.10;94.40;;;;;;4795322;29;20051;-81
2021/04/07 07:10:48;;;;;;;10.70;7.75;;;-0.90;94.70;;;;;;4800488;29;20509;-83
2021/04/07 07:13:34;;;;;;;7.93;7.13;;;-1.10;94.90;;;;;;4783323;29;20042;-83
2021/04/07 07:16:52;;;;;;;7.43;6.82;;;-1.20;95.60;;;;;;4781274;30;20075;-83
2021/04/07 07:19:29;;;;;;;6.90;6.28;;;-0.60;93.60;;;;;;4776407;29;20047;-84
2021/04/07 07:22:02;;;;;;;7.53;6.38;;;-0.70;94.00;;;;;;4748972;29;20490;-82
2021/04/07 07:24:37;;;;;;;7.22;6.53;;;-1.10;95.10;;;;;;4798244;29;20059;-84
2021/04/07 07:27:10;;;;;;;6.13;5.65;;;-0.90;95.30;;;;;;4785722;29;20051;-82
2021/04/07 07:29:38;;;;;;;7.72;6.07;;;-1.00;95.20;;;;;;4805979;29;20058;-83
2021/04/07 07:32:10;;;;;;;7.40;6.78;;;-1.20;95.30;;;;;;4803045;29;20463;-84
2021/04/07 07:34:40;;;;;;;10.02;6.90;;;-1.30;95.90;;;;;;4766356;29;20486;-82
2021/04/07 07:37:09;;;;;;;7.15;6.45;;;-1.20;95.90;;;;;;4787793;29;20485;-84
2021/04/07 07:39:40;;;;;;;8.73;6.88;;;-1.10;94.60;;;;;;4787535;29;20067;-85
2021/04/07 07:42:10;;;;;;;;;;;-1.10;93.90;;;;;;4776593;29;20047;-84
2021/04/07 07:44:40;;;;;;;10.18;5.65;;;-1.10;95.20;;;;;;4806433;29;19929;-82
2021/04/07 07:50:17;;;;;;;6.50;5.85;;;-1.10;94.90;;;;;;4806736;29;20062;-83
2021/04/07 07:53:28;;;;;;;10.18;7.72;;;-1.10;94.60;;;;;;4777685;29;20054;-79
2021/04/07 07:56:04;;;;;;;9.60;8.05;;;-1.20;94.60;;;;;;4783997;29;20066;-84
2021/04/07 07:58:44;;;;;;;5.95;5.32;;;-1.00;93.80;;;;;;4785545;29;20039;-82
2021/04/07 08:01:23;;;;;;;5.20;4.72;;;-0.60;93.40;;;;;;4806363;29;20039;-81
2021/04/07 08:04:09;;;;;;;8.65;6.55;;;0.90;89.50;;;;;;4807221;29;20059;-80
2021/04/07 08:06:55;;;;;;;5.90;5.47;;;1.40;82.40;;;;;;4788057;29;20057;-80
2021/04/07 08:09:33;;;;;;;4.93;4.53;;;1.10;88.90;;;;;;4805926;29;20577;-85
2021/04/07 08:12:19;;;;;;;9.25;6.72;;;1.40;87.10;;;;;;4804372;29;20050;-82
2021/04/07 08:14:58;;;;;;;7.85;5.57;;;1.20;86.60;;;;;;4794448;29;20541;-80
2021/04/07 08:17:29;;;;;;;8.30;7.20;;;0.40;90.80;;;;;;4773232;30;20047;-84
2021/04/07 08:20:24;;;;;;;8.25;4.97;;;0.20;89.80;;;;;;4772074;29;20062;-81
2021/04/07 08:23:27;;;;;;;7.50;6.65;;;0.60;90.60;;;;;;4797735;29;20047;-81
2021/04/07 08:26:05;;;;;;;6.32;5.70;;;0.30;87.20;;;;;;4804093;29;20394;-83
2021/04/07 08:28:44;;;;;;;5.05;4.65;;;0.20;89.10;;;;;;4804704;29;20515;-84
2021/04/07 08:31:17;;;;;;;4.78;4.38;;;1.80;83.40;;;;;;4804559;29;20039;-87
2021/04/07 08:33:59;;;;;;;4.28;3.88;;;1.50;80.70;;;;;;4805866;29;20047;-83
2021/04/07 08:36:30;;;;;;;7.18;6.45;;;0.30;87.60;;;;;;4775561;29;20065;-87
2021/04/07 08:39:23;;;;;;;8.77;6.50;;;-0.40;90.40;;;;;;4759426;30;20070;-85
2021/04/07 08:41:58;;;;;;;6.25;5.70;;;0.10;88.40;;;;;;4783055;29;20532;-85
2021/04/07 08:44:26;;;;;;;6.10;5.60;;;0.70;86.70;;;;;;4808713;29;20118;-85
2021/04/07 08:46:59;;;;;;;6.80;6.10;;;2.20;78.00;;;;;;4806890;29;20058;-85
2021/04/07 08:49:36;;;;;;;8.45;7.65;;;1.50;81.50;;;;;;4808249;29;20043;-85
2021/04/07 08:52:24;;;;;;;7.57;6.97;;;0.60;87.80;;;;;;4824304;29;20058;-83
2021/04/07 08:55:00;;;;;;;8.02;5.05;;;0.90;81.50;;;;;;4792438;29;20057;-82
2021/04/07 08:57:38;;;;;;;6.13;5.30;;;0.30;85.40;;;;;;4807891;29;20408;-79
2021/04/07 09:00:16;;;;;;;9.65;6.50;;;0.10;90.10;;;;;;4824169;29;20074;-82
2021/04/07 09:02:54;;;;;;;9.07;8.27;;;-0.70;93.20;;;;;;4809668;29;20038;-81
2021/04/07 09:05:34;;;;;;;20.42;10.02;;;-1.50;94.40;;;;;;4801578;29;20051;-81
2021/04/07 09:08:10;;;;;;;8.73;6.30;;;-1.40;96.40;;;;;;4805221;29;20386;-79
2021/04/07 09:10:41;;;;;;;;;;;-1.60;96.40;;;;;;4804294;29;20047;-77
2021/04/07 09:13:14;;;;;;;8.82;6.13;;;-1.10;94.80;;;;;;4803616;29;19929;-82
2021/04/07 09:15:55;;;;;;;6.88;6.18;;;-0.50;93.60;;;;;;4789508;29;20059;-79
2021/04/07 09:18:35;;;;;;;9.30;7.03;;;-0.40;92.00;;;;;;4805328;29;20062;-79
2021/04/07 09:21:08;;;;;;;7.80;7.03;;;-0.50;92.80;;;;;;4805590;29;20065;-79
2021/04/07 09:23:39;;;;;;;8.07;7.47;;;-0.20;89.40;;;;;;4805989;29;20066;-82
2021/04/07 09:26:16;;;;;;;7.05;6.38;;;-0.10;90.60;;;;;;4803047;29;20417;-80
2021/04/07 09:28:56;;;;;;;7.80;6.95;;;-0.20;91.20;;;;;;4790792;29;20398;-84
2021/04/07 09:31:34;;;;;;;8.73;7.15;;;0.00;91.10;;;;;;4801399;29;20515;-83
2021/04/07 09:34:02;;;;;;;6.70;6.20;;;0.00;90.90;;;;;;4783166;29;20535;-83
2021/04/07 09:36:32;;;;;;;8.90;8.10;;;0.20;90.10;;;;;;4792095;29;20046;-83
2021/04/07 09:39:09;;;;;;;7.43;6.82;;;0.40;90.90;;;;;;4748408;29;20043;-83
2021/04/07 09:41:44;;;;;;;7.95;6.07;;;0.60;90.70;;;;;;4757895;29;20050;-83
2021/04/07 09:49:12;;;;;;;7.53;6.07;;;0.40;90.10;;;;;;4782735;29;20058;-83
2021/04/07 09:52:40;;;;;;;12.73;7.70;;;0.00;89.60;;;;;;4792559;29;20050;-83
2021/04/07 09:55:19;;;;;;;6.53;5.88;;;-0.20;88.90;;;;;;4785229;29;20174;-83
2021/04/07 09:58:03;;;;;;;6.72;6.07;;;0.10;86.70;;;;;;4804263;29;20038;-83
2021/04/07 10:00:33;;;;;;;7.88;7.07;;;0.20;86.10;;;;;;4789381;29;20062;-84
2021/04/07 10:03:03;;;;;;;8.55;7.88;;;0.50;86.80;;;;;;4788391;29;20051;-84
2021/04/07 10:05:32;;;;;;;8.77;7.60;;;0.40;82.90;;;;;;4797678;29;20074;-82
2021/04/07 10:08:16;;;;;;;7.65;6.88;;;0.00;86.10;;;;;;4803661;29;20062;-80
2021/04/07 10:10:46;;;;;;;5.68;5.00;;;-0.20;91.10;;;;;;4783637;29;20439;-82
2021/04/07 10:13:21;;;;;;;7.82;6.10;;;-0.50;91.60;;;;;;4801154;29;20051;-85
2021/04/07 10:15:49;;;;;;;5.40;3.42;;;-0.60;91.80;;;;;;4783477;29;20059;-82
2021/04/07 10:18:21;;;;;;;;;;;-0.30;86.60;;;;;;4799660;29;20047;-83
2021/04/07 10:20:51;;;;;;;3.80;3.38;;;0.10;88.80;;;;;;4800203;29;19929;-80
2021/04/07 10:23:23;;;;;;;4.25;3.95;;;0.10;89.80;;;;;;4783527;29;20051;-81
2021/04/07 10:25:53;;;;;;;7.28;3.95;;;0.30;90.00;;;;;;4814913;29;20061;-78
2021/04/07 10:28:21;;;;;;;4.82;4.45;;;0.40;85.00;;;;;;4818692;29;20505;-82
2021/04/07 10:30:55;;;;;;;4.30;3.97;;;0.60;81.00;;;;;;4818112;29;20054;-81
2021/04/07 10:33:29;;;;;;;3.58;3.28;;;0.80;81.40;;;;;;4818246;29;20047;-81
2021/04/07 10:36:03;;;;;;;5.82;5.32;;;0.70;75.30;;;;;;4787657;29;20051;-81
2021/04/07 10:38:36;;;;;;;6.97;6.30;;;0.60;81.30;;;;;;4784088;29;20050;-83
2021/04/07 10:41:10;;;;;;;8.38;7.68;;;0.70;82.90;;;;;;4784326;29;20458;-81
2021/04/07 10:43:43;;;;;;;8.20;5.78;;;-0.20;90.20;;;;;;4788050;29;20059;-84
2021/04/07 10:46:11;;;;;;;6.00;5.32;;;-0.90;95.60;;;;;;4775596;30;20071;-84
2021/04/07 10:48:39;;;;;;;9.50;6.07;;;-1.20;97.50;;;;;;4763595;30;20055;-81
2021/04/07 10:51:09;;;;;;;5.10;4.60;;;-1.60;98.80;;;;;;4766219;29;20055;-82
2021/04/07 10:53:41;;;;;;;3.50;3.20;;;-1.70;99.10;;;;;;4769943;29;20044;-82
2021/04/07 10:56:31;;;;;;;6.55;5.05;;;-1.50;96.40;;;;;;4793014;29;20378;-84
2021/04/07 10:59:02;;;;;;;4.72;3.97;;;-1.40;94.40;;;;;;4761417;29;20055;-84
2021/04/07 11:01:32;;;;;;;5.15;4.65;;;-1.00;95.00;;;;;;4754246;29;20047;-86
2021/04/07 11:04:19;;;;;;;4.57;3.45;;;-0.60;93.20;;;;;;4765257;29;20763;-84
2021/04/07 11:06:57;;;;;;;5.22;4.78;;;-0.20;91.70;;;;;;4779561;29;20047;-83
2021/04/07 11:09:32;;;;;;;5.80;5.30;;;0.00;91.10;;;;;;4784903;29;20086;-83
2021/04/07 11:12:04;;;;;;;10.18;4.65;;;0.00;90.10;;;;;;4753965;30;20059;-83
2021/04/07 11:14:32;;;;;;;5.20;4.38;;;0.00;88.20;;;;;;4797085;29;20635;-82
2021/04/07 11:17:01;;;;;;;9.57;5.68;;;0.20;88.10;;;;;;4786602;29;20059;-80
2021/04/07 11:19:35;;;;;;;5.90;5.22;;;-0.10;85.50;;;;;;4776023;30;20063;-80
2021/04/07 11:22:05;;;;;;;6.13;4.93;;;-0.20;86.70;;;;;;4766649;30;20491;-81
2021/04/07 11:24:33;;;;;;;5.35;4.93;;;-0.30;86.10;;;;;;4768133;30;20063;-80
2021/04/07 11:27:01;;;;;;;6.30;4.68;;;-0.80;94.20;;;;;;4750455;30;20450;-83
2021/04/07 11:29:29;;;;;;;5.32;4.65;;;-1.00;95.10;;;;;;4743275;30;20055;-85
2021/04/07 11:31:58;;;;;;;4.22;3.80;;;-1.00;93.60;;;;;;4785084;29;20063;-83
2021/04/07 11:35:08;;;;;;;3.08;2.97;;;-1.00;92.00;;;;;;4789103;30;20048;-83
2021/04/07 11:43:20;;;;;;;7.13;4.30;;;-0.20;93.00;;;;;;4789441;30;20121;-82
2021/04/07 11:45:49;;;;;;;2.95;2.85;;;0.00;91.10;;;;;;4770637;29;20055;-82
2021/04/07 11:48:37;;;;;;;3.88;3.58;;;0.40;88.90;;;;;;4812653;29;20039;-82
2021/04/07 11:51:07;;;;;;;6.80;5.55;;;0.60;86.40;;;;;;4825577;29;20065;-81
2021/04/07 11:53:36;;;;;;;3.15;2.95;;;0.70;85.90;;;;;;4810538;29;20051;-82
2021/04/07 11:56:05;;;;;;;3.70;3.40;;;0.50;90.40;;;;;;4791443;29;20649;-81
2021/04/07 11:58:32;;;;;;;4.00;2.80;;;0.00;91.00;;;;;;4789899;29;20042;-86
2021/04/07 12:01:01;;;;;;;4.95;4.50;;;-0.70;94.60;;;;;;4766989;29;20070;-83
2021/04/07 12:03:29;;;;;;;8.32;4.25;;;-1.20;98.30;;;;;;4790258;29;20066;-86
2021/04/07 12:05:56;;;;;;;6.32;4.03;;;-1.20;99.20;;;;;;4790079;29;20065;-82
2021/04/07 12:08:24;;;;;;;4.03;3.53;;;-0.90;97.10;;;;;;4762086;30;20055;-83
2021/04/07 12:10:52;;;;;;;8.50;4.50;;;-0.30;94.80;;;;;;4783896;29;20054;-84
2021/04/07 12:13:20;;;;;;;11.68;6.32;;;0.20;93.60;;;;;;4771819;29;20058;-84
2021/04/07 12:15:48;;;;;;;2.45;2.25;;;0.70;91.20;;;;;;4770433;29;20405;-84
2021/04/07 12:18:16;;;;;;;4.75;3.95;;;1.00;87.50;;;;;;4787106;29;20062;-83
2021/04/07 12:20:43;;;;;;;3.63;3.38;;;1.10;82.50;;;;;;4797031;29;20069;-83
2021/04/07 12:23:22;;;;;;;4.03;3.45;;;1.30;78.50;;;;;;4797154;29;20051;-83
2021/04/07 12:26:11;;;;;;;4.90;2.50;;;1.40;84.80;;;;;;4794752;29;20047;-83
2021/04/07 12:28:43;;;;;;;4.25;3.08;;;1.90;76.10;;;;;;4769894;29;20498;-79
2021/04/07 12:31:20;;;;;;;4.25;2.17;;;1.80;76.20;;;;;;4770683;29;20051;-80
2021/04/07 12:33:52;;;;;;;5.68;2.17;;;2.00;78.30;;;;;;4784096;29;20051;-82
2021/04/07 12:36:29;;;;;;;5.00;3.10;;;1.50;76.40;;;;;;4787299;29;20054;-82
2021/04/07 12:38:59;;;;;;;4.25;3.85;;;1.70;80.40;;;;;;4784600;29;20047;-80
2021/04/07 12:41:30;;;;;;;3.58;2.30;;;1.70;73.90;;;;;;4787012;29;20070;-80
2021/04/07 12:44:09;;;;;;;2.92;2.20;;;1.60;69.80;;;;;;4787343;29;20050;-79
2021/04/07 12:46:49;;;;;;;4.28;2.67;;;1.40;71.90;;;;;;4788253;29;20050;-79
2021/04/07 12:49:17;;;;;;;2.78;2.58;;;1.30;73.00;;;;;;4803195;29;20051;-79
2021/04/07 12:51:45;;;;;;;3.78;2.88;;;1.20;70.20;;;;;;4772593;29;20055;-78
2021/04/07 12:54:15;;;;;;;5.97;2.63;;;1.30;74.00;;;;;;4755548;29;20047;-80
2021/04/07 12:57:18;;;;;;;3.45;2.78;;;1.40;70.10;;;;;;4770535;29;20062;-79
2021/04/07 12:59:46;;;;;;;3.20;2.80;;;1.70;72.30;;;;;;4776220;29;20120;-82
2021/04/07 13:02:16;;;;;;;4.47;2.50;;;2.20;70.10;;;;;;4760261;29;20493;-81
2021/04/07 13:04:46;;;;;;;;;;;2.40;72.50;;;;;;4782093;29;20417;-82
2021/04/07 13:07:34;;;;;;;3.30;2.47;;;2.40;72.70;;;;;;4795021;29;19925;-83
2021/04/07 13:10:03;;;;;;;2.10;1.90;;;2.20;68.20;;;;;;4799901;29;20523;-74
2021/04/07 13:12:36;;;;;;;3.67;1.95;;;2.20;66.60;;;;;;4767060;29;20054;-74
2021/04/07 13:15:07;;;;;;;3.05;2.53;;;2.10;64.20;;;;;;4799529;29;20055;-75
2021/04/07 13:17:34;;;;;;;1.90;1.80;;;2.10;67.60;;;;;;4799714;29;20055;-76
2021/04/07 13:20:04;;;;;;;2.63;2.42;;;2.50;72.40;;;;;;4799736;29;20086;-76
2021/04/07 13:22:32;;;;;;;5.28;2.85;;;2.20;71.60;;;;;;4801013;29;20058;-75
2021/04/07 13:25:00;;;;;;;2.30;2.10;;;1.80;71.80;;;;;;4800501;29;20055;-75
2021/04/07 13:27:29;;;;;;;3.80;3.50;;;1.30;77.60;;;;;;4800873;29;20089;-74
2021/04/07 13:29:59;;;;;;;4.95;3.00;;;1.00;82.20;;;;;;4801501;29;20046;-74
2021/04/07 13:32:29;;;;;;;6.45;3.03;;;0.60;88.50;;;;;;4800634;29;20061;-75
2021/04/07 13:35:10;;;;;;;3.83;3.13;;;0.50;91.70;;;;;;4800697;29;20074;-76
2021/04/07 13:37:54;;;;;;;4.97;3.13;;;0.80;91.60;;;;;;4801432;29;20425;-75
2021/04/07 13:40:27;;;;;;;3.92;2.95;;;0.80;90.50;;;;;;4800803;29;20497;-76
2021/04/07 13:42:55;;;;;;;2.92;2.03;;;0.80;90.10;;;;;;4782534;30;20047;-74
2021/04/07 13:45:33;;;;;;;2.80;2.47;;;0.70;91.60;;;;;;4799125;29;20058;-75
2021/04/07 13:48:10;;;;;;;3.15;2.90;;;0.30;91.60;;;;;;4822624;29;20065;-74
2021/04/07 13:50:39;;;;;;;4.72;2.75;;;0.10;94.40;;;;;;4807057;29;20054;-74
2021/04/07 13:53:08;;;;;;;4.32;2.97;;;0.00;95.00;;;;;;4803731;29;20073;-75
2021/04/07 13:55:39;;;;;;;3.42;3.13;;;0.00;96.80;;;;;;4804474;29;20063;-75
2021/04/07 13:58:07;;;;;;;3.70;3.40;;;0.00;97.50;;;;;;4816120;29;20058;-74
2021/04/07 14:00:44;;;;;;;5.85;3.38;;;-0.10;96.90;;;;;;4804684;29;20059;-75
2021/04/07 14:03:17;;;;;;;5.32;3.53;;;-0.20;98.40;;;;;;4800197;29;20050;-74
2021/04/07 14:05:51;;;;;;;5.82;4.03;;;-0.40;98.60;;;;;;4803423;29;20054;-75
2021/04/07 14:08:20;;;;;;;7.57;3.42;;;-0.70;99.10;;;;;;4803287;29;20050;-75
2021/04/07 14:10:49;;;;;;;3.53;3.30;;;-0.10;98.90;;;;;;4802887;29;20504;-75
2021/04/07 14:13:18;;;;;;;3.53;3.22;;;0.30;95.90;;;;;;4784914;29;20388;-76
2021/04/07 14:15:46;;;;;;;4.20;2.80;;;0.40;94.80;;;;;;4773672;29;20054;-75
2021/04/07 14:18:13;;;;;;;2.42;2.20;;;0.40;95.80;;;;;;4786807;29;20058;-75